createdAt,value
2022-08-18T00:01:59.372Z,98644.31
2022-08-18T00:04:35.498Z,98640.94
2022-08-18T00:07:04.295Z,98647.97
2022-08-18T00:09:32.985Z,98644.50
2022-08-18T00:12:01.533Z,98638.56
2022-08-18T00:14:28.715Z,98644.69
2022-08-18T00:16:56.149Z,98640.25
2022-08-18T00:19:45.471Z,98642.25
2022-08-18T00:22:15.012Z,98628.03
2022-08-18T00:24:48.095Z,98633.25
2022-08-18T00:27:28.774Z,98637.91
2022-08-18T00:29:56.979Z,98637.81
2022-08-18T00:32:25.712Z,98639.41
2022-08-18T00:34:53.492Z,98636.97
2022-08-18T00:37:21.295Z,98639.28
2022-08-18T00:39:50.741Z,98633.84
2022-08-18T00:42:28.684Z,98631.97
2022-08-18T00:45:00.011Z,98639.09
2022-08-18T00:47:41.385Z,98639.47
2022-08-18T00:50:17.135Z,98641.94
2022-08-18T00:52:45.536Z,98647.56
2022-08-18T00:55:12.933Z,98652.47
2022-08-18T00:57:40.094Z,98657.59
2022-08-18T01:00:13.071Z,98652.97
2022-08-18T01:02:43.251Z,98649.88
2022-08-18T01:05:30.687Z,98651.50
2022-08-18T01:07:58.116Z,98649.59
2022-08-18T01:10:25.757Z,98655.41
2022-08-18T01:12:53.820Z,98654.31
2022-08-18T01:15:28.072Z,98662.28
2022-08-18T01:18:16.655Z,98664.53
2022-08-18T01:21:02.837Z,98661.59
2022-08-18T01:23:30.016Z,98664.91
2022-08-18T01:26:00.395Z,98668.41
2022-08-18T01:28:27.971Z,98671.56
2022-08-18T01:30:58.356Z,98666.50
2022-08-18T01:33:32.438Z,98668.16
2022-08-18T01:36:00.663Z,98665.28
2022-08-18T01:38:28.095Z,98668.81
2022-08-18T01:41:25.599Z,98676.91
2022-08-18T01:43:42.713Z,98675.37
2022-08-18T01:46:09.884Z,98665.25
2022-08-18T01:48:37.209Z,98673.19
2022-08-18T01:51:05.932Z,98674.59
2022-08-18T01:53:33.296Z,98677.53
2022-08-18T01:56:00.443Z,98669.50
2022-08-18T01:58:31.554Z,98683.63
2022-08-18T02:01:01.858Z,98675.97
2022-08-18T02:03:30.519Z,98683.25
2022-08-18T02:05:59.430Z,98684.28
2022-08-18T02:08:28.107Z,98680.28
2022-08-18T02:10:58.337Z,98667.09
2022-08-18T02:13:26.499Z,98667.19
2022-08-18T02:15:53.644Z,98679.75
2022-08-18T02:18:41.399Z,98674.91
2022-08-18T02:21:10.745Z,98667.97
2022-08-18T02:23:40.059Z,98675.00
2022-08-18T02:26:14.268Z,98665.75
2022-08-18T02:28:41.759Z,98675.00
2022-08-18T02:31:14.325Z,98678.03
2022-08-18T02:33:42.186Z,98678.72
2022-08-18T02:36:19.289Z,98682.47
2022-08-18T02:38:54.666Z,98676.81
2022-08-18T02:41:29.370Z,98672.94
2022-08-18T02:43:58.052Z,98678.75
2022-08-18T02:46:29.690Z,98677.06
2022-08-18T02:48:58.070Z,98677.00
2022-08-18T02:51:25.918Z,98673.63
2022-08-18T02:53:54.027Z,98680.44
2022-08-18T02:56:33.002Z,98679.53
2022-08-18T02:59:08.786Z,98685.50
2022-08-18T03:01:38.443Z,98691.31
2022-08-18T03:04:06.668Z,98692.09
2022-08-18T03:06:34.616Z,98696.13
2022-08-18T03:09:04.445Z,98692.84
2022-08-18T03:11:31.927Z,98701.44
2022-08-18T03:14:00.380Z,98701.44
2022-08-18T03:16:28.806Z,98693.00
2022-08-18T03:18:55.990Z,98702.78
2022-08-18T03:21:24.658Z,98698.25
2022-08-18T03:24:00.755Z,98701.97
2022-08-18T03:26:29.849Z,98694.62
2022-08-18T03:28:58.021Z,98689.75
2022-08-18T03:31:28.078Z,98690.91
2022-08-18T03:33:59.364Z,98695.16
2022-08-18T03:36:28.836Z,98697.87
2022-08-18T03:38:56.775Z,98690.28
2022-08-18T03:41:43.718Z,98686.78
2022-08-18T03:44:14.394Z,98677.91
2022-08-18T03:46:42.380Z,98687.03
2022-08-18T03:49:09.666Z,98695.38
2022-08-18T03:51:37.437Z,98692.03
2022-08-18T03:54:05.618Z,98696.25
2022-08-18T03:56:35.007Z,98686.72
2022-08-18T03:59:04.235Z,98693.91
2022-08-18T04:01:33.656Z,98696.22
2022-08-18T04:04:02.331Z,98701.66
2022-08-18T04:06:31.155Z,98698.19
2022-08-18T04:09:00.547Z,98699.19
2022-08-18T04:11:31.070Z,98695.06
2022-08-18T04:14:04.516Z,98704.44
2022-08-18T04:16:32.438Z,98698.72
2022-08-18T04:19:05.454Z,98699.78
2022-08-18T04:21:34.801Z,98700.06
2022-08-18T04:24:04.066Z,98698.97
2022-08-18T04:26:32.295Z,98701.53
2022-08-18T04:29:02.475Z,98701.78
2022-08-18T04:31:29.798Z,98707.75
2022-08-18T04:33:57.448Z,98699.38
2022-08-18T04:36:25.220Z,98695.88
2022-08-18T04:38:52.425Z,98693.78
2022-08-18T04:41:27.462Z,98690.37
2022-08-18T04:43:55.796Z,98697.25
2022-08-18T04:46:24.266Z,98702.91
2022-08-18T04:48:52.356Z,98700.56
2022-08-18T04:52:36.335Z,98699.50
2022-08-18T04:54:07.545Z,98706.75
2022-08-18T04:56:36.864Z,98708.34
2022-08-18T04:59:10.878Z,98699.91
2022-08-18T05:01:39.501Z,98697.22
2022-08-18T05:04:06.913Z,98701.31
2022-08-18T05:06:34.089Z,98704.25
2022-08-18T05:09:03.067Z,98712.13
2022-08-18T05:11:34.616Z,98700.13
2022-08-18T05:14:02.929Z,98692.47
2022-08-18T05:16:42.102Z,98691.13
2022-08-18T05:19:19.195Z,98690.59
2022-08-18T05:21:50.699Z,98699.97
2022-08-18T05:24:19.608Z,98696.78
2022-08-18T05:26:46.828Z,98705.84
2022-08-18T05:29:19.047Z,98710.34
2022-08-18T05:31:53.356Z,98708.50
2022-08-18T05:34:21.295Z,98711.91
2022-08-18T05:36:48.697Z,98707.81
2022-08-18T05:39:21.494Z,98714.03
2022-08-18T05:41:53.445Z,98709.56
2022-08-18T05:44:27.532Z,98717.41
2022-08-18T05:46:56.387Z,98717.12
2022-08-18T05:49:24.989Z,98708.53
2022-08-18T05:51:53.329Z,98712.37
2022-08-18T05:54:40.093Z,98719.44
2022-08-18T05:57:08.739Z,98720.06
2022-08-18T05:59:37.464Z,98717.12
2022-08-18T06:02:23.467Z,98720.37
2022-08-18T06:05:16.560Z,98711.63
2022-08-18T06:07:46.872Z,98710.19
2022-08-18T06:10:14.166Z,98721.56
2022-08-18T06:12:47.180Z,98723.97
2022-08-18T06:15:20.942Z,98726.75
2022-08-18T06:18:01.027Z,98730.13
2022-08-18T06:20:47.276Z,98721.97
2022-08-18T06:23:26.003Z,98725.94
2022-08-18T06:25:55.333Z,98722.94
2022-08-18T06:28:22.507Z,98720.66
2022-08-18T06:31:08.346Z,98720.53
2022-08-18T06:33:54.620Z,98720.19
2022-08-18T06:36:46.339Z,98721.22
2022-08-18T06:39:19.821Z,98721.06
2022-08-18T06:41:49.062Z,98723.97
2022-08-18T06:44:19.171Z,98723.19
2022-08-18T06:46:46.315Z,98729.31
2022-08-18T06:49:36.735Z,98728.13
2022-08-18T06:52:19.584Z,98727.38
2022-08-18T06:54:51.282Z,98719.31
2022-08-18T06:57:27.985Z,98704.47
2022-08-18T07:00:00.435Z,98704.25
2022-08-18T07:02:45.090Z,98708.72
2022-08-18T07:05:15.251Z,98704.72
2022-08-18T07:07:43.336Z,98703.94
2022-08-18T07:10:13.625Z,98703.22
2022-08-18T07:12:41.073Z,98701.31
2022-08-18T07:15:08.779Z,98705.53
2022-08-18T07:17:42.728Z,98714.09
2022-08-18T07:20:18.899Z,98701.31
2022-08-18T07:22:53.466Z,98707.41
2022-08-18T07:25:22.630Z,98706.50
2022-08-18T07:27:50.564Z,98701.03
2022-08-18T07:30:19.296Z,98706.84
2022-08-18T07:32:57.335Z,98709.41
2022-08-18T07:35:26.268Z,98694.00
2022-08-18T07:37:55.479Z,98700.97
2022-08-18T07:40:28.186Z,98702.34
2022-08-18T07:43:01.453Z,98691.06
2022-08-18T07:45:32.447Z,98705.63
2022-08-18T07:48:38.788Z,98714.69
2022-08-18T07:51:21.123Z,98711.03
2022-08-18T07:53:56.187Z,98707.06
2022-08-18T07:56:28.750Z,98728.25
2022-08-18T07:58:56.310Z,98716.38
2022-08-18T08:01:27.079Z,98723.00
2022-08-18T08:07:22.515Z,98740.00
2022-08-18T08:09:51.726Z,98745.09
2022-08-18T08:12:19.378Z,98748.19
2022-08-18T08:14:47.972Z,98751.00
2022-08-18T08:17:23.616Z,98758.59
2022-08-18T08:20:00.650Z,98762.91
2022-08-18T08:22:49.321Z,98758.69
2022-08-18T08:25:35.094Z,98763.84
2022-08-18T08:28:12.325Z,98758.81
2022-08-18T08:30:47.147Z,98755.50
2022-08-18T08:33:33.521Z,98750.50
2022-08-18T08:36:01.013Z,98749.16
2022-08-18T08:38:42.151Z,98756.25
2022-08-18T08:41:20.382Z,98749.22
2022-08-18T08:43:49.472Z,98737.34
2022-08-18T08:46:21.516Z,98728.19
2022-08-18T08:49:07.571Z,98728.50
2022-08-18T08:51:35.120Z,98723.00
2022-08-18T08:54:07.276Z,98730.53
2022-08-18T08:56:35.561Z,98729.72
2022-08-18T08:59:13.225Z,98727.41
2022-08-18T09:01:40.835Z,98720.53
2022-08-18T09:04:14.364Z,98730.72
2022-08-18T09:06:48.171Z,98721.91
2022-08-18T09:09:24.726Z,98714.81
2022-08-18T09:12:21.687Z,98713.69
2022-08-18T09:14:56.528Z,98719.41
2022-08-18T09:17:34.595Z,98715.13
2022-08-18T09:20:07.911Z,98721.47
2022-08-18T09:22:44.308Z,98709.12
2022-08-18T09:25:12.995Z,98707.00
2022-08-18T09:28:09.301Z,98710.25
2022-08-18T09:30:51.507Z,98708.66
2022-08-18T09:33:32.056Z,98720.66
2022-08-18T09:35:59.196Z,98711.53
2022-08-18T09:38:45.827Z,98710.06
2022-08-18T09:41:32.362Z,98697.00
2022-08-18T09:44:21.718Z,98690.09
2022-08-18T09:46:55.903Z,98687.25
2022-08-18T09:49:23.402Z,98683.84
2022-08-18T09:51:51.519Z,98679.03
2022-08-18T09:54:20.881Z,98669.81
2022-08-18T09:56:54.091Z,98670.13
2022-08-18T09:59:31.782Z,98672.25
2022-08-18T10:02:20.068Z,98661.28
2022-08-18T10:04:53.792Z,98648.09
2022-08-18T10:07:23.179Z,98649.31
2022-08-18T10:10:58.823Z,98639.84
2022-08-18T10:13:17.663Z,98645.47
2022-08-18T10:16:10.608Z,98646.81
2022-08-18T10:18:41.604Z,98661.66
2022-08-18T10:26:56.777Z,98655.06
2022-08-18T10:29:23.922Z,98652.00
2022-08-18T10:31:57.554Z,98657.19
2022-08-18T10:34:38.390Z,98644.47
2022-08-18T10:37:26.561Z,98641.66
2022-08-18T10:39:55.889Z,98658.53
2022-08-18T10:42:23.109Z,98647.25
2022-08-18T10:44:50.579Z,98637.28
2022-08-18T10:47:33.666Z,98651.31
2022-08-18T10:50:03.913Z,98645.63
2022-08-18T10:55:57.114Z,98635.56
2022-08-18T10:58:44.118Z,98637.00
2022-08-18T11:01:32.728Z,98640.91
2022-08-18T11:04:14.291Z,98635.94
2022-08-18T11:06:50.944Z,98630.09
2022-08-18T11:09:25.031Z,98626.12
2022-08-18T11:11:59.528Z,98635.25
2022-08-18T11:14:27.513Z,98621.06
2022-08-18T11:17:13.376Z,98624.81
2022-08-18T11:19:43.618Z,98628.50
2022-08-18T11:22:34.116Z,98625.28
2022-08-18T11:25:03.047Z,98616.97
2022-08-18T11:27:32.758Z,98610.00
2022-08-18T11:30:01.330Z,98608.56
2022-08-18T11:32:30.408Z,98606.91
2022-08-18T11:35:00.379Z,98604.47
2022-08-18T11:41:01.755Z,98586.31
2022-08-18T11:43:13.724Z,98587.84
2022-08-18T11:45:46.729Z,98580.44
2022-08-18T11:48:14.166Z,98572.31
2022-08-18T11:51:02.535Z,98576.06
2022-08-18T11:53:32.907Z,98579.09
2022-08-18T11:56:21.182Z,98588.75
2022-08-18T11:59:04.124Z,98571.13
2022-08-18T12:01:52.044Z,98559.94
2022-08-18T12:04:19.717Z,98567.72
2022-08-18T12:06:54.147Z,98566.22
2022-08-18T12:10:15.379Z,98560.31
2022-08-18T12:12:24.312Z,98552.31
2022-08-18T12:15:13.623Z,98556.41
2022-08-18T12:17:52.657Z,98558.44
2022-08-18T12:20:21.411Z,98534.75
2022-08-18T12:22:49.828Z,98537.50
2022-08-18T12:28:05.555Z,98517.94
2022-08-18T12:30:38.389Z,98530.37
2022-08-18T12:33:12.204Z,98525.56
2022-08-18T12:35:41.866Z,98513.50
2022-08-18T12:38:13.048Z,98515.00
2022-08-18T12:40:41.879Z,98526.88
2022-08-18T12:43:09.298Z,98532.63
2022-08-18T12:45:38.209Z,98535.28
2022-08-18T12:48:06.684Z,98531.72
2022-08-18T12:53:30.707Z,98547.66
2022-08-18T12:59:11.203Z,98544.72
2022-08-18T13:01:39.924Z,98565.94
2022-08-18T13:04:12.495Z,98558.97
2022-08-18T13:06:46.972Z,98553.41
2022-08-18T13:09:48.639Z,98560.34
2022-08-18T13:12:16.653Z,98550.53
2022-08-18T13:14:44.844Z,98554.94
2022-08-18T13:17:32.129Z,98548.69
2022-08-18T13:20:00.790Z,98548.44
2022-08-18T13:22:32.324Z,98558.63
2022-08-18T13:25:01.507Z,98553.56
2022-08-18T13:27:33.149Z,98556.69
2022-08-18T13:30:26.198Z,98560.03
2022-08-18T13:33:00.537Z,98553.28
2022-08-18T13:35:37.914Z,98545.50
2022-08-18T13:38:14.288Z,98546.41
2022-08-18T13:40:48.287Z,98544.41
2022-08-18T13:43:17.571Z,98552.81
2022-08-18T13:45:53.051Z,98545.00
2022-08-18T13:48:24.339Z,98546.47
2022-08-18T13:50:55.735Z,98556.47
2022-08-18T13:53:23.733Z,98546.28
2022-08-18T13:55:52.066Z,98536.72
2022-08-18T13:58:20.695Z,98549.34
2022-08-18T14:00:51.653Z,98533.34
2022-08-18T14:03:42.291Z,98543.06
2022-08-18T14:06:07.894Z,98542.06
2022-08-18T14:08:35.381Z,98560.25
2022-08-18T14:11:02.897Z,98555.09
2022-08-18T14:13:30.426Z,98543.19
2022-08-18T14:16:18.717Z,98547.88
2022-08-18T14:19:09.796Z,98547.31
2022-08-18T14:21:58.377Z,98551.44
2022-08-18T14:24:48.995Z,98552.75
2022-08-18T14:27:17.816Z,98572.75
2022-08-18T14:29:47.955Z,98570.78
2022-08-18T14:32:18.043Z,98570.34
2022-08-18T14:34:50.773Z,98564.88
2022-08-18T14:37:18.616Z,98552.56
2022-08-18T14:39:50.293Z,98566.69
2022-08-18T14:42:19.151Z,98561.13
2022-08-18T14:45:03.509Z,98561.59
2022-08-18T14:47:45.622Z,98561.47
2022-08-18T14:50:17.541Z,98559.66
2022-08-18T14:52:51.212Z,98552.56
2022-08-18T14:55:18.408Z,98552.56
2022-08-18T14:57:45.597Z,98547.53
2022-08-18T15:00:16.182Z,98548.47
2022-08-18T15:02:46.751Z,98540.41
2022-08-18T15:05:19.568Z,98548.25
2022-08-18T15:07:51.232Z,98549.31
2022-08-18T15:10:19.977Z,98542.19
2022-08-18T15:12:51.574Z,98527.84
2022-08-18T15:15:22.352Z,98542.97
2022-08-18T15:17:52.835Z,98539.22
2022-08-18T15:20:28.586Z,98538.22
2022-08-18T15:23:22.836Z,98541.59
2022-08-18T15:25:56.441Z,98546.28
2022-08-18T15:28:25.297Z,98551.16
2022-08-18T15:31:16.841Z,98542.78
2022-08-18T15:33:40.003Z,98545.87
2022-08-18T15:36:10.149Z,98542.53
2022-08-18T15:38:38.396Z,98557.16
2022-08-18T15:41:09.192Z,98554.81
2022-08-18T15:43:45.951Z,98564.69
2022-08-18T15:46:14.008Z,98557.09
2022-08-18T15:48:43.924Z,98542.16
2022-08-18T15:51:12.046Z,98537.03
2022-08-18T15:53:44.638Z,98535.28
2022-08-18T15:56:13.696Z,98534.38
2022-08-18T15:58:41.142Z,98529.59
2022-08-18T16:01:20.764Z,98533.94
2022-08-18T16:03:50.029Z,98524.53
2022-08-18T16:06:20.360Z,98537.13
2022-08-18T16:08:47.694Z,98536.72
2022-08-18T16:11:24.631Z,98530.16
2022-08-18T16:13:58.896Z,98536.38
2022-08-18T16:16:29.299Z,98528.69
2022-08-18T16:19:04.761Z,98537.75
2022-08-18T16:21:32.278Z,98535.13
2022-08-18T16:23:59.466Z,98536.63
2022-08-18T16:26:26.678Z,98535.22
2022-08-18T16:28:54.132Z,98533.16
2022-08-18T16:31:25.091Z,98537.69
2022-08-18T16:33:53.814Z,98526.34
2022-08-18T16:36:21.727Z,98527.00
2022-08-18T16:38:48.885Z,98543.13
2022-08-18T16:41:21.005Z,98533.66
2022-08-18T16:43:48.491Z,98531.84
2022-08-18T16:46:21.410Z,98534.50
2022-08-18T16:48:50.415Z,98534.50
2022-08-18T16:51:22.413Z,98526.94
2022-08-18T16:53:52.493Z,98519.91
2022-08-18T16:56:20.749Z,98524.06
2022-08-18T16:59:06.515Z,98525.81
2022-08-18T17:01:53.420Z,98519.59
2022-08-18T17:04:22.509Z,98523.78
2022-08-18T17:06:50.341Z,98514.91
2022-08-18T17:09:18.326Z,98503.78
2022-08-18T17:11:51.434Z,98508.50
2022-08-18T17:14:22.904Z,98504.03
2022-08-18T17:16:54.415Z,98496.16
2022-08-18T17:19:26.166Z,98497.09
2022-08-18T17:21:53.487Z,98490.75
2022-08-18T17:24:31.784Z,98486.00
2022-08-18T17:27:03.945Z,98473.00
2022-08-18T17:29:43.960Z,98477.97
2022-08-18T17:32:24.671Z,98455.47
2022-08-18T17:34:55.945Z,98449.62
2022-08-18T17:37:24.041Z,98445.97
2022-08-18T17:39:54.979Z,98459.59
2022-08-18T17:42:29.086Z,98461.13
2022-08-18T17:45:07.378Z,98452.19
2022-08-18T17:47:38.028Z,98462.47
2022-08-18T17:50:26.806Z,98470.41
2022-08-18T17:53:00.408Z,98466.16
2022-08-18T17:55:34.903Z,98482.09
2022-08-18T17:58:25.384Z,98477.69
2022-08-18T18:00:52.878Z,98476.13
2022-08-18T18:03:20.370Z,98479.50
2022-08-18T18:05:49.393Z,98473.59
2022-08-18T18:08:17.116Z,98483.59
2022-08-18T18:13:34.233Z,98491.75
2022-08-18T18:16:03.492Z,98487.69
2022-08-18T18:18:41.968Z,98495.84
2022-08-18T18:21:15.612Z,98498.72
2022-08-18T18:23:45.925Z,98498.84
2022-08-18T18:26:19.321Z,98505.31
2022-08-18T18:28:46.661Z,98504.63
2022-08-18T18:31:18.260Z,98511.41
2022-08-18T18:33:45.639Z,98518.41
2022-08-18T18:36:12.842Z,98512.13
2022-08-18T18:38:46.119Z,98510.09
2022-08-18T18:41:13.267Z,98519.56
2022-08-18T18:43:42.107Z,98511.09
2022-08-18T18:46:09.231Z,98509.06
2022-08-18T18:48:57.311Z,98509.91
2022-08-18T18:51:35.913Z,98513.44
2022-08-18T18:54:23.785Z,98518.38
2022-08-18T18:56:52.156Z,98520.56
2022-08-18T18:59:38.579Z,98516.16
2022-08-18T19:02:13.491Z,98514.47
2022-08-18T19:05:07.722Z,98509.06
2022-08-18T19:07:54.011Z,98509.69
2022-08-18T19:10:33.479Z,98505.97
2022-08-18T19:13:02.549Z,98510.81
2022-08-18T19:15:29.696Z,98508.25
2022-08-18T19:18:05.443Z,98510.97
2022-08-18T19:20:35.973Z,98507.41
2022-08-18T19:23:15.539Z,98507.63
2022-08-18T19:26:01.599Z,98503.91
2022-08-18T19:28:35.590Z,98505.84
2022-08-18T19:31:24.711Z,98501.13
2022-08-18T19:33:53.672Z,98507.00
2022-08-18T19:36:39.175Z,98495.78
2022-08-18T19:39:11.289Z,98502.88
2022-08-18T19:41:39.524Z,98504.63
2022-08-18T19:44:10.428Z,98508.56
2022-08-18T19:46:38.584Z,98498.13
2022-08-18T19:49:05.706Z,98510.50
2022-08-18T19:51:34.471Z,98502.84
2022-08-18T19:54:02.179Z,98509.41
2022-08-18T19:56:41.282Z,98511.28
2022-08-18T19:59:23.693Z,98508.56
2022-08-18T20:02:00.089Z,98506.13
2022-08-18T20:04:27.540Z,98521.03
2022-08-18T20:07:17.499Z,98522.72
2022-08-18T20:09:48.567Z,98521.87
2022-08-18T20:12:16.262Z,98523.34
2022-08-18T20:14:43.743Z,98523.75
2022-08-18T20:17:21.325Z,98516.94
2022-08-18T20:20:12.794Z,98521.72
2022-08-18T20:22:45.594Z,98513.69
2022-08-18T20:25:16.475Z,98524.59
2022-08-18T20:27:45.906Z,98515.63
2022-08-18T20:30:28.492Z,98514.09
2022-08-18T20:33:11.504Z,98511.72
2022-08-18T20:35:46.813Z,98520.03
2022-08-18T20:38:18.775Z,98522.47
2022-08-18T20:40:48.926Z,98523.28
2022-08-18T20:43:30.526Z,98518.84
2022-08-18T20:46:07.673Z,98520.13
2022-08-18T20:48:42.305Z,98519.09
2022-08-18T20:51:13.958Z,98519.44
2022-08-18T20:53:49.929Z,98524.97
2022-08-18T20:56:32.029Z,98540.22
2022-08-18T20:59:21.819Z,98533.69
2022-08-18T21:01:55.245Z,98556.91
2022-08-18T21:04:34.267Z,98556.06
2022-08-18T21:07:12.793Z,98562.56
2022-08-18T21:09:40.845Z,98568.91
2022-08-18T21:12:11.596Z,98566.28
2022-08-18T21:14:42.155Z,98571.22
2022-08-18T21:17:13.177Z,98569.66
2022-08-18T21:19:40.682Z,98570.66
2022-08-18T21:22:08.134Z,98572.81
2022-08-18T21:24:37.877Z,98576.72
2022-08-18T21:27:23.740Z,98586.00
2022-08-18T21:29:52.123Z,98578.97
2022-08-18T21:32:21.515Z,98587.75
2022-08-18T21:34:48.653Z,98598.31
2022-08-18T21:37:18.004Z,98600.16
2022-08-18T21:39:48.242Z,98612.22
2022-08-18T21:42:20.988Z,98605.03
2022-08-18T21:44:48.305Z,98600.66
2022-08-18T21:47:29.210Z,98607.19
2022-08-18T21:49:59.001Z,98609.97
2022-08-18T21:52:28.240Z,98609.56
2022-08-18T21:54:57.528Z,98609.91
2022-08-18T21:57:25.625Z,98615.22
2022-08-18T22:00:22.244Z,98618.34
2022-08-18T22:02:52.171Z,98614.41
2022-08-18T22:05:28.095Z,98621.09
2022-08-18T22:07:55.539Z,98618.38
2022-08-18T22:10:47.648Z,98625.62
2022-08-18T22:13:41.676Z,98625.47
2022-08-18T22:16:24.635Z,98636.22
2022-08-18T22:19:04.694Z,98641.00
2022-08-18T22:21:32.192Z,98633.34
2022-08-18T22:24:19.174Z,98640.00
2022-08-18T22:27:02.236Z,98649.03
2022-08-18T22:29:33.951Z,98651.97
2022-08-18T22:32:01.650Z,98654.19
2022-08-18T22:34:30.327Z,98658.25
2022-08-18T22:37:23.804Z,98652.25
2022-08-18T22:39:53.090Z,98658.22
2022-08-18T22:42:21.371Z,98655.78
2022-08-18T22:44:48.549Z,98656.53
2022-08-18T22:47:15.836Z,98656.59
2022-08-18T22:49:43.576Z,98662.38
2022-08-18T22:52:30.051Z,98653.88
2022-08-18T22:55:06.767Z,98653.88
2022-08-18T22:57:36.490Z,98655.41
2022-08-18T23:00:07.657Z,98663.38
2022-08-18T23:02:37.450Z,98658.81
2022-08-18T23:05:05.249Z,98659.13
2022-08-18T23:07:32.567Z,98655.41
2022-08-18T23:10:00.020Z,98656.56
2022-08-18T23:12:27.487Z,98648.91
2022-08-18T23:14:54.986Z,98636.87
2022-08-18T23:17:22.530Z,98631.94
2022-08-18T23:19:52.019Z,98628.28
2022-08-18T23:22:19.594Z,98633.94
2022-08-18T23:24:48.636Z,98622.63
2022-08-18T23:27:16.868Z,98625.16
2022-08-18T23:29:44.023Z,98620.34
2022-08-18T23:32:11.200Z,98619.06
2022-08-18T23:34:38.669Z,98623.16
2022-08-18T23:37:06.459Z,98616.69
2022-08-18T23:39:34.862Z,98610.31
2022-08-18T23:42:02.999Z,98617.34
2022-08-18T23:44:31.540Z,98604.81
2022-08-18T23:46:59.932Z,98610.66
2022-08-18T23:49:31.150Z,98610.38
2022-08-18T23:51:59.116Z,98604.09
2022-08-18T23:54:27.906Z,98609.59
2022-08-18T23:56:55.392Z,98615.78
2022-08-18T23:59:23.250Z,98613.09
